Time;durP1;ratioP1;P1;durP2;ratioP2;P2;SDS_P1;SDS_P2;PMS_P1;PMS_P2;Temp;Humidity;BMP_temperature;BMP_pressure;BME280_temperature;BME280_humidity;BME280_pressure;Samples;Min_cycle;Max_cycle;Signal;HPM_P1;HPM_P2
2024/02/19 00:00:54;;;;;;;5.05;1.63;;;11.00;99.90;;;;;;2084554;28;20891;-67
2024/02/19 00:01:55;;;;;;;5.60;2.20;;;11.00;99.90;;;;;;2084598;28;20473;-68
2024/02/19 00:02:56;;;;;;;10.48;2.85;;;11.00;99.90;;;;;;2086016;28;20303;-69
2024/02/19 00:03:57;;;;;;;6.28;1.85;;;11.00;99.90;;;;;;2083716;28;20025;-67
2024/02/19 00:04:58;;;;;;;7.80;2.00;;;11.00;99.90;;;;;;2084644;28;20025;-68
2024/02/19 00:05:58;;;;;;;5.47;2.10;;;11.00;99.90;;;;;;2085503;28;20024;-68
2024/02/19 00:06:59;;;;;;;5.22;2.58;;;11.00;99.90;;;;;;2083477;28;20140;-68
2024/02/19 00:07:59;;;;;;;5.72;1.98;;;11.00;99.90;;;;;;2086057;28;20108;-68
2024/02/19 00:09:01;;;;;;;6.93;2.35;;;11.00;99.90;;;;;;2082918;28;20029;-68
2024/02/19 00:10:02;;;;;;;7.05;2.05;;;11.00;99.90;;;;;;2084878;28;20462;-68
2024/02/19 00:11:03;;;;;;;7.05;2.40;;;11.00;99.90;;;;;;2085227;28;20035;-67
2024/02/19 00:12:03;;;;;;;9.18;2.55;;;11.00;99.90;;;;;;2083729;28;20489;-68
2024/02/19 00:13:04;;;;;;;9.60;2.58;;;11.00;99.90;;;;;;2084659;28;20114;-67
2024/02/19 00:14:05;;;;;;;8.15;2.15;;;11.00;99.90;;;;;;2084685;28;20027;-68
2024/02/19 00:15:06;;;;;;;9.23;2.60;;;11.00;99.90;;;;;;2084932;28;20418;-69
2024/02/19 00:16:07;;;;;;;8.30;2.38;;;11.00;99.90;;;;;;2085948;28;20037;-69
2024/02/19 00:17:08;;;;;;;6.88;2.33;;;11.00;99.90;;;;;;2084461;28;20056;-68
2024/02/19 00:18:09;;;;;;;6.15;2.08;;;11.00;99.90;;;;;;2082585;28;20028;-67
2024/02/19 00:19:10;;;;;;;6.38;2.20;;;11.00;99.90;;;;;;2083606;28;20064;-67
2024/02/19 00:20:11;;;;;;;6.50;1.90;;;11.00;99.90;;;;;;2083851;28;20128;-68
2024/02/19 00:21:11;;;;;;;11.93;2.42;;;11.00;99.90;;;;;;2084621;28;20025;-68
2024/02/19 00:22:12;;;;;;;10.10;2.53;;;11.00;99.90;;;;;;2084337;28;20021;-68
2024/02/19 00:23:12;;;;;;;7.50;2.75;;;10.90;99.90;;;;;;2084197;28;20028;-67
2024/02/19 00:24:13;;;;;;;8.13;2.50;;;11.00;99.90;;;;;;2084082;28;20429;-68
2024/02/19 00:25:13;;;;;;;6.95;2.25;;;10.90;99.90;;;;;;2083522;28;20049;-68
2024/02/19 00:26:14;;;;;;;7.47;2.20;;;10.90;99.90;;;;;;2085542;28;20037;-68
2024/02/19 00:27:15;;;;;;;7.05;2.50;;;10.90;99.90;;;;;;2082972;28;20025;-67
2024/02/19 00:28:16;;;;;;;9.77;2.17;;;10.90;99.90;;;;;;2086127;28;20171;-68
2024/02/19 00:29:16;;;;;;;8.48;2.33;;;10.90;99.90;;;;;;2083806;28;20041;-68
2024/02/19 00:30:17;;;;;;;11.23;2.75;;;10.90;99.90;;;;;;2084105;28;20032;-67
2024/02/19 00:31:18;;;;;;;9.38;2.47;;;10.90;99.90;;;;;;2082923;28;20098;-68
2024/02/19 00:32:18;;;;;;;7.60;2.03;;;10.90;99.90;;;;;;2083795;28;20540;-66
2024/02/19 00:33:19;;;;;;;11.00;2.95;;;10.90;99.90;;;;;;2084631;28;20045;-68
2024/02/19 00:34:19;;;;;;;10.43;2.50;;;10.90;99.90;;;;;;2083532;28;20029;-69
2024/02/19 00:35:21;;;;;;;11.63;2.50;;;10.90;99.90;;;;;;2086191;28;20044;-68
2024/02/19 00:36:21;;;;;;;12.40;2.78;;;10.90;99.90;;;;;;2084123;28;20033;-68
2024/02/19 00:37:23;;;;;;;9.45;2.65;;;10.90;99.90;;;;;;2082315;28;20034;-68
2024/02/19 00:38:24;;;;;;;7.57;2.40;;;10.90;99.90;;;;;;2081832;28;20162;-69
2024/02/19 00:39:25;;;;;;;10.90;3.00;;;10.80;99.90;;;;;;2083976;28;20079;-67
2024/02/19 00:40:26;;;;;;;12.13;2.97;;;10.80;99.90;;;;;;2083563;28;20064;-67
2024/02/19 00:41:27;;;;;;;11.40;2.50;;;10.80;99.90;;;;;;2083679;28;20032;-68
2024/02/19 00:42:28;;;;;;;8.73;2.33;;;10.80;99.90;;;;;;2083660;28;20032;-68
2024/02/19 00:43:28;;;;;;;13.48;2.60;;;10.80;99.90;;;;;;2084394;28;20060;-68
2024/02/19 00:44:29;;;;;;;11.23;2.85;;;10.80;99.90;;;;;;2085005;28;20032;-67
2024/02/19 00:45:29;;;;;;;11.70;2.45;;;10.80;99.90;;;;;;2085569;28;20131;-67
2024/02/19 00:46:30;;;;;;;10.40;2.75;;;10.80;99.90;;;;;;2085918;28;20021;-68
2024/02/19 00:47:30;;;;;;;14.30;2.60;;;10.70;99.90;;;;;;2082551;28;20104;-68
2024/02/19 00:48:31;;;;;;;11.25;2.45;;;10.70;99.90;;;;;;2082850;28;20052;-68
2024/02/19 00:49:32;;;;;;;14.05;2.33;;;10.70;99.90;;;;;;2083733;28;20036;-68
2024/02/19 00:50:32;;;;;;;12.68;2.40;;;10.70;99.90;;;;;;2085022;28;20123;-68
2024/02/19 00:51:36;;;;;;;12.82;3.13;;;10.70;99.90;;;;;;2084188;28;20114;-69
2024/02/19 00:52:40;;;;;;;12.13;2.42;;;10.70;99.90;;;;;;2084454;28;20021;-68
2024/02/19 00:53:40;;;;;;;11.63;2.50;;;10.70;99.90;;;;;;2086019;28;20040;-68
2024/02/19 00:54:43;;;;;;;15.02;3.10;;;10.70;99.90;;;;;;2085697;28;20033;-67
2024/02/19 00:55:44;;;;;;;12.90;2.60;;;10.70;99.90;;;;;;2081319;28;20041;-68
2024/02/19 00:56:44;;;;;;;12.07;2.13;;;10.70;99.90;;;;;;2083938;28;20044;-68
2024/02/19 00:57:45;;;;;;;11.82;2.08;;;10.60;99.90;;;;;;2084903;28;20461;-67
2024/02/19 00:58:45;;;;;;;11.85;2.35;;;10.70;99.90;;;;;;2083157;28;20116;-68
2024/02/19 00:59:46;;;;;;;9.82;2.40;;;10.70;99.90;;;;;;2082776;28;20486;-68
2024/02/19 01:00:47;;;;;;;12.90;2.42;;;10.70;99.90;;;;;;2083184;28;20032;-67
2024/02/19 01:01:47;;;;;;;10.30;2.50;;;10.60;99.90;;;;;;2082005;28;20033;-67
2024/02/19 01:02:48;;;;;;;10.60;2.80;;;10.60;99.90;;;;;;2083873;28;20566;-67
2024/02/19 01:03:49;;;;;;;9.82;2.35;;;10.60;99.90;;;;;;2082650;28;20027;-67
2024/02/19 01:04:53;;;;;;;13.80;2.60;;;10.50;99.90;;;;;;2083478;28;20029;-68
2024/02/19 01:05:53;;;;;;;9.27;2.13;;;10.50;99.90;;;;;;2085350;28;20104;-68
2024/02/19 01:06:54;;;;;;;11.95;2.75;;;10.50;99.90;;;;;;2083701;28;20038;-68
2024/02/19 01:07:54;;;;;;;12.05;3.15;;;10.50;99.90;;;;;;2083947;28;20029;-68
2024/02/19 01:08:55;;;;;;;9.98;2.20;;;10.50;99.90;;;;;;2085646;28;20033;-68
2024/02/19 01:09:55;;;;;;;11.52;1.83;;;10.50;99.90;;;;;;2083991;28;20461;-68
2024/02/19 01:10:56;;;;;;;9.60;2.45;;;10.50;99.90;;;;;;2083161;28;20029;-67
2024/02/19 01:11:56;;;;;;;9.02;1.70;;;10.40;99.90;;;;;;2082636;28;20025;-68
2024/02/19 01:12:57;;;;;;;10.57;2.40;;;10.40;99.90;;;;;;2083845;28;20092;-67
2024/02/19 01:13:57;;;;;;;11.30;2.20;;;10.40;99.90;;;;;;2082447;28;20025;-68
2024/02/19 01:14:58;;;;;;;8.15;1.60;;;10.40;99.90;;;;;;2083343;28;20100;-68
2024/02/19 01:15:59;;;;;;;8.82;1.95;;;10.30;99.90;;;;;;2083823;28;20033;-68
2024/02/19 01:16:59;;;;;;;9.02;2.10;;;10.30;99.90;;;;;;2083447;28;20048;-69
2024/02/19 01:18:00;;;;;;;6.88;1.33;;;10.30;99.90;;;;;;2082471;28;20390;-71
2024/02/19 01:19:00;;;;;;;12.63;2.17;;;10.30;99.90;;;;;;2083341;28;20024;-72
2024/02/19 01:20:02;;;;;;;10.10;1.95;;;10.30;99.90;;;;;;2083592;28;20370;-71
2024/02/19 01:21:03;;;;;;;8.43;1.98;;;10.30;99.90;;;;;;2083765;28;20112;-72
2024/02/19 01:22:03;;;;;;;8.07;1.85;;;10.30;99.90;;;;;;2083404;28;20029;-72
2024/02/19 01:23:04;;;;;;;7.65;1.77;;;10.30;99.90;;;;;;2081850;28;20426;-72
2024/02/19 01:24:08;;;;;;;9.85;2.10;;;10.30;99.90;;;;;;2084346;28;20109;-72
2024/02/19 01:25:08;;;;;;;8.40;1.90;;;10.30;99.90;;;;;;2083485;28;20023;-72
2024/02/19 01:26:09;;;;;;;11.88;2.10;;;10.30;99.90;;;;;;2082771;28;20052;-71
2024/02/19 01:27:10;;;;;;;9.80;2.00;;;10.20;99.90;;;;;;2081481;28;20040;-69
2024/02/19 01:28:10;;;;;;;11.68;1.95;;;10.20;99.90;;;;;;2083052;28;20026;-68
2024/02/19 01:29:11;;;;;;;11.90;3.53;;;10.20;99.90;;;;;;2083249;28;20552;-68
2024/02/19 01:30:12;;;;;;;11.38;2.13;;;10.20;99.90;;;;;;2084490;28;20074;-68
2024/02/19 01:31:12;;;;;;;12.43;2.63;;;10.30;99.90;;;;;;2084619;28;20026;-68
2024/02/19 01:32:13;;;;;;;12.30;2.67;;;10.30;99.90;;;;;;2084560;28;20535;-68
2024/02/19 01:33:14;;;;;;;9.18;2.25;;;10.20;99.90;;;;;;2081014;28;20036;-68
2024/02/19 01:34:14;;;;;;;10.13;2.15;;;10.30;99.90;;;;;;2084233;28;20029;-69
2024/02/19 01:35:15;;;;;;;11.95;2.60;;;10.20;99.90;;;;;;2083960;28;20816;-68
2024/02/19 01:36:16;;;;;;;12.05;2.42;;;10.30;99.90;;;;;;2084671;28;20059;-68
2024/02/19 01:37:16;;;;;;;13.65;3.08;;;10.30;99.90;;;;;;2083433;28;20025;-72
2024/02/19 01:38:17;;;;;;;11.02;2.55;;;10.30;99.90;;;;;;2084296;28;20033;-71
2024/02/19 01:39:18;;;;;;;12.23;2.40;;;10.30;99.90;;;;;;2082474;28;20499;-72
2024/02/19 01:40:18;;;;;;;11.23;2.80;;;10.30;99.90;;;;;;2083750;28;20033;-71
2024/02/19 01:41:19;;;;;;;20.48;2.63;;;10.20;99.90;;;;;;2078225;28;20021;-72
2024/02/19 01:42:19;;;;;;;12.88;3.10;;;10.20;99.90;;;;;;2085953;28;20028;-72
2024/02/19 01:43:20;;;;;;;7.28;2.03;;;10.30;99.90;;;;;;2090050;28;20029;-72
2024/02/19 01:44:21;;;;;;;10.90;3.13;;;10.30;99.90;;;;;;2085218;28;20021;-72
2024/02/19 01:45:28;;;;;;;9.48;2.40;;;10.20;99.90;;;;;;2084884;28;20556;-72
2024/02/19 01:46:31;;;;;;;8.90;2.30;;;10.30;99.90;;;;;;2086264;28;20024;-71
2024/02/19 01:47:32;;;;;;;13.20;2.75;;;10.30;99.90;;;;;;2082883;28;20028;-72
2024/02/19 01:48:33;;;;;;;13.02;2.33;;;10.20;99.90;;;;;;2086954;28;20103;-72
2024/02/19 01:49:34;;;;;;;13.13;2.90;;;10.20;99.90;;;;;;2084684;28;20033;-72
2024/02/19 01:50:36;;;;;;;13.18;2.78;;;10.20;99.90;;;;;;2084163;28;20805;-72
2024/02/19 01:51:38;;;;;;;8.80;2.53;;;10.20;99.90;;;;;;2085588;28;20064;-72
2024/02/19 01:52:39;;;;;;;12.52;2.50;;;10.20;99.90;;;;;;2084369;28;20071;-72
2024/02/19 01:53:41;;;;;;;13.93;2.63;;;10.30;99.90;;;;;;2084613;28;20037;-72
2024/02/19 01:54:42;;;;;;;13.80;2.60;;;10.30;99.90;;;;;;2086242;28;20025;-71
2024/02/19 01:55:44;;;;;;;13.77;2.78;;;10.30;99.90;;;;;;2084842;28;20040;-72
2024/02/19 01:56:45;;;;;;;12.48;2.92;;;10.30;99.90;;;;;;2085889;28;20077;-72
2024/02/19 01:57:46;;;;;;;12.63;2.88;;;10.30;99.90;;;;;;2085981;28;20520;-71
2024/02/19 01:58:48;;;;;;;13.48;2.50;;;10.30;99.90;;;;;;2087975;28;20091;-72
2024/02/19 01:59:50;;;;;;;10.48;2.60;;;10.30;99.90;;;;;;2085220;28;20374;-72
2024/02/19 02:00:50;;;;;;;9.43;2.30;;;10.30;99.90;;;;;;2083594;28;20029;-72
2024/02/19 02:01:54;;;;;;;12.75;3.08;;;10.30;99.90;;;;;;2091542;28;20108;-71
2024/02/19 02:02:55;;;;;;;12.57;2.83;;;10.30;99.90;;;;;;2092660;28;20037;-72
2024/02/19 02:03:57;;;;;;;13.65;2.85;;;10.20;99.90;;;;;;2083639;28;20143;-72
2024/02/19 02:04:58;;;;;;;11.05;2.20;;;10.20;99.90;;;;;;2085245;28;20067;-72
2024/02/19 02:05:59;;;;;;;13.05;2.80;;;10.20;99.90;;;;;;2083634;28;20509;-71
2024/02/19 02:06:59;;;;;;;12.80;2.78;;;10.20;99.90;;;;;;2085038;28;20705;-71
2024/02/19 02:08:02;;;;;;;14.00;3.33;;;10.20;99.90;;;;;;2083871;28;20354;-72
2024/02/19 02:09:03;;;;;;;16.38;3.00;;;10.20;99.90;;;;;;2083947;28;20501;-72
2024/02/19 02:10:05;;;;;;;11.70;2.40;;;10.30;99.90;;;;;;2083193;28;20479;-71
2024/02/19 02:11:06;;;;;;;18.77;3.05;;;10.30;99.90;;;;;;2086710;28;20053;-72
2024/02/19 02:12:07;;;;;;;16.20;2.80;;;10.30;99.90;;;;;;2086757;28;20032;-72
2024/02/19 02:13:08;;;;;;;8.45;3.00;;;10.30;99.90;;;;;;2086050;28;20032;-71
2024/02/19 02:14:09;;;;;;;15.93;2.50;;;10.30;99.90;;;;;;2085344;28;20460;-72
2024/02/19 02:15:09;;;;;;;11.50;2.30;;;10.30;99.90;;;;;;2084706;28;20386;-71
2024/02/19 02:16:10;;;;;;;13.02;2.95;;;10.20;99.90;;;;;;2086170;28;20041;-72
2024/02/19 02:17:10;;;;;;;12.10;2.63;;;10.20;99.90;;;;;;2085502;28;20025;-72
2024/02/19 02:18:12;;;;;;;13.65;2.15;;;10.20;99.90;;;;;;2086348;28;20031;-72
2024/02/19 02:19:16;;;;;;;10.02;2.30;;;10.20;99.90;;;;;;2085523;28;20042;-72
2024/02/19 02:20:16;;;;;;;10.77;2.30;;;10.20;99.90;;;;;;2084651;28;20094;-71
2024/02/19 02:21:17;;;;;;;12.52;2.53;;;10.20;99.90;;;;;;2086733;28;20029;-72
2024/02/19 02:22:18;;;;;;;14.60;2.70;;;10.20;99.90;;;;;;2084850;28;20043;-72
2024/02/19 02:23:21;;;;;;;12.98;2.78;;;10.20;99.90;;;;;;2084090;28;20041;-72
2024/02/19 02:24:21;;;;;;;12.57;2.78;;;10.20;99.90;;;;;;2084223;28;20871;-71
2024/02/19 02:25:22;;;;;;;12.38;2.58;;;10.20;99.90;;;;;;2085697;28;20362;-72
2024/02/19 02:26:23;;;;;;;11.77;2.08;;;10.20;99.90;;;;;;2087250;28;20025;-72
2024/02/19 02:27:23;;;;;;;12.07;2.00;;;10.20;99.90;;;;;;2085833;28;20485;-72
2024/02/19 02:28:24;;;;;;;12.57;3.05;;;10.20;99.90;;;;;;2087307;28;20112;-72
2024/02/19 02:29:24;;;;;;;13.80;2.63;;;10.20;99.90;;;;;;2085650;28;20551;-72
2024/02/19 02:30:25;;;;;;;11.98;2.50;;;10.20;99.90;;;;;;2084435;28;20029;-71
2024/02/19 02:31:26;;;;;;;11.18;2.28;;;10.20;99.90;;;;;;2084283;28;20033;-72
2024/02/19 02:32:26;;;;;;;15.88;2.95;;;10.20;99.90;;;;;;2083814;28;20084;-72
2024/02/19 02:33:27;;;;;;;11.15;2.30;;;10.20;99.90;;;;;;2084680;28;20026;-72
2024/02/19 02:34:27;;;;;;;8.02;2.00;;;10.20;99.90;;;;;;2083323;28;20060;-71
2024/02/19 02:35:28;;;;;;;10.88;2.05;;;10.20;99.90;;;;;;2086274;28;20025;-72
2024/02/19 02:36:29;;;;;;;13.07;2.47;;;10.20;99.90;;;;;;2086223;28;20059;-72
2024/02/19 02:37:30;;;;;;;9.88;2.63;;;10.20;99.90;;;;;;2085656;28;20112;-71
2024/02/19 02:38:31;;;;;;;21.38;2.60;;;10.20;99.90;;;;;;2085172;28;20029;-71
2024/02/19 02:39:31;;;;;;;12.88;2.40;;;10.20;99.90;;;;;;2084594;28;20092;-72
2024/02/19 02:40:32;;;;;;;12.30;2.45;;;10.20;99.90;;;;;;2085155;28;20040;-71
2024/02/19 02:41:33;;;;;;;11.25;2.58;;;10.20;99.90;;;;;;2085023;28;20025;-72
2024/02/19 02:42:33;;;;;;;12.93;2.78;;;10.20;99.90;;;;;;2083773;28;20029;-71
2024/02/19 02:43:34;;;;;;;15.73;2.75;;;10.20;99.90;;;;;;2086182;28;20057;-72
2024/02/19 02:44:34;;;;;;;12.65;2.38;;;10.10;99.90;;;;;;2084654;28;20036;-71
2024/02/19 02:45:35;;;;;;;14.13;2.90;;;10.20;99.90;;;;;;2084517;28;20075;-72
2024/02/19 02:46:35;;;;;;;11.65;2.95;;;10.20;99.90;;;;;;2084046;28;20092;-72
2024/02/19 02:47:36;;;;;;;15.18;2.85;;;10.20;99.90;;;;;;2085771;28;20025;-71
2024/02/19 02:48:36;;;;;;;15.45;2.53;;;10.20;99.90;;;;;;2083804;28;20033;-71
2024/02/19 02:49:37;;;;;;;12.68;2.60;;;10.20;99.90;;;;;;2084566;28;20122;-72
2024/02/19 02:50:37;;;;;;;11.13;2.40;;;10.20;99.90;;;;;;2084255;28;20075;-71
2024/02/19 02:51:38;;;;;;;17.05;3.42;;;10.20;99.90;;;;;;2086006;28;20462;-72
2024/02/19 02:52:39;;;;;;;10.13;2.33;;;10.20;99.90;;;;;;2082736;28;20072;-72
2024/02/19 02:53:39;;;;;;;13.30;2.25;;;10.20;99.90;;;;;;2086789;28;20037;-72
2024/02/19 02:54:40;;;;;;;18.95;3.22;;;10.20;99.90;;;;;;2082874;28;20037;-71
2024/02/19 02:55:42;;;;;;;11.98;2.22;;;10.20;99.90;;;;;;2087333;28;20540;-72
2024/02/19 02:56:43;;;;;;;14.80;2.72;;;10.20;99.90;;;;;;2084738;28;20037;-71
2024/02/19 02:57:43;;;;;;;14.75;2.60;;;10.20;99.90;;;;;;2085641;28;20454;-72
2024/02/19 02:58:44;;;;;;;11.40;2.70;;;10.20;99.90;;;;;;2085786;28;20688;-70
2024/02/19 02:59:45;;;;;;;11.65;2.40;;;10.20;99.90;;;;;;2085409;28;20033;-72
2024/02/19 03:00:45;;;;;;;10.60;2.45;;;10.20;99.90;;;;;;2083906;28;20064;-72
2024/02/19 03:01:46;;;;;;;14.90;3.05;;;10.30;99.90;;;;;;2086695;28;20029;-72
2024/02/19 03:02:46;;;;;;;9.13;2.83;;;10.30;99.90;;;;;;2087277;28;20029;-72
2024/02/19 03:03:47;;;;;;;16.60;2.60;;;10.30;99.90;;;;;;2086955;28;20029;-72
2024/02/19 03:04:48;;;;;;;16.13;3.55;;;10.30;99.90;;;;;;2086351;28;20033;-72
2024/02/19 03:05:48;;;;;;;15.18;2.97;;;10.30;99.90;;;;;;2085148;28;20520;-72
2024/02/19 03:06:49;;;;;;;12.27;2.20;;;10.20;99.90;;;;;;2085749;28;20171;-72
2024/02/19 03:07:49;;;;;;;14.50;3.70;;;10.30;99.90;;;;;;2083871;28;20078;-72
2024/02/19 03:08:50;;;;;;;11.85;2.40;;;10.20;99.90;;;;;;2083203;28;20025;-72
2024/02/19 03:09:50;;;;;;;15.52;2.58;;;10.20;99.90;;;;;;2084833;28;20040;-72
2024/02/19 03:10:51;;;;;;;11.05;3.03;;;10.20;99.90;;;;;;2082077;28;20064;-71
2024/02/19 03:11:51;;;;;;;11.23;2.00;;;10.20;99.90;;;;;;2085451;28;20124;-71
2024/02/19 03:12:52;;;;;;;10.63;2.03;;;10.20;99.90;;;;;;2087359;28;20033;-71
2024/02/19 03:13:52;;;;;;;23.95;2.88;;;10.20;99.90;;;;;;2084517;28;20553;-71
2024/02/19 03:14:54;;;;;;;13.05;2.10;;;10.20;99.90;;;;;;2084263;28;20812;-71
2024/02/19 03:15:54;;;;;;;13.60;2.88;;;10.20;99.90;;;;;;2085123;28;20048;-71
2024/02/19 03:16:55;;;;;;;10.65;2.10;;;10.20;99.90;;;;;;2085409;28;20063;-71
2024/02/19 03:17:55;;;;;;;10.52;2.80;;;10.20;99.90;;;;;;2085486;28;20048;-71
2024/02/19 03:18:56;;;;;;;11.07;2.17;;;10.20;99.90;;;;;;2084458;28;20065;-72
2024/02/19 03:19:56;;;;;;;9.80;2.72;;;10.20;99.90;;;;;;2083439;28;20037;-71
2024/02/19 03:20:57;;;;;;;10.23;2.17;;;10.30;99.90;;;;;;2085372;28;20069;-72
2024/02/19 03:21:57;;;;;;;10.52;2.28;;;10.30;99.90;;;;;;2083656;28;20441;-71
2024/02/19 03:22:58;;;;;;;9.57;2.47;;;10.30;99.90;;;;;;2086683;28;20149;-72
2024/02/19 03:23:58;;;;;;;13.32;2.28;;;10.30;99.90;;;;;;2083501;28;20091;-72
2024/02/19 03:24:59;;;;;;;11.80;2.45;;;10.30;99.90;;;;;;2083926;28;20546;-71
2024/02/19 03:26:00;;;;;;;13.68;2.65;;;10.30;99.90;;;;;;2083922;28;20162;-71
2024/02/19 03:27:02;;;;;;;7.45;1.90;;;10.30;99.90;;;;;;2085370;28;20128;-72
2024/02/19 03:28:02;;;;;;;17.73;2.80;;;10.40;99.90;;;;;;2083781;28;20473;-71
2024/02/19 03:29:13;;;;;;;11.93;2.70;;;10.40;99.90;;;;;;2084713;28;20026;-70
2024/02/19 03:30:14;;;;;;;12.02;2.55;;;10.40;99.90;;;;;;2083865;28;20040;-72
2024/02/19 03:31:14;;;;;;;13.45;2.75;;;10.40;99.90;;;;;;2084886;28;20029;-71
2024/02/19 03:32:15;;;;;;;20.60;3.20;;;10.40;99.90;;;;;;2084571;28;20033;-72
2024/02/19 03:33:15;;;;;;;13.93;3.33;;;10.40;99.90;;;;;;2084177;28;20029;-72
2024/02/19 03:34:16;;;;;;;13.88;3.25;;;10.40;99.90;;;;;;2083384;28;20029;-71
2024/02/19 03:35:16;;;;;;;15.13;2.28;;;10.40;99.90;;;;;;2083875;28;20033;-72
2024/02/19 03:36:17;;;;;;;16.55;2.55;;;10.40;99.90;;;;;;2083312;28;20090;-71
2024/02/19 03:37:17;;;;;;;14.50;3.30;;;10.40;99.90;;;;;;2086911;28;20416;-72
2024/02/19 03:38:18;;;;;;;12.02;3.33;;;10.40;99.90;;;;;;2084034;28;20025;-71
2024/02/19 03:39:19;;;;;;;10.52;2.40;;;10.40;99.90;;;;;;2085646;28;20033;-72
2024/02/19 03:40:19;;;;;;;12.55;3.30;;;10.40;99.90;;;;;;2083653;28;20037;-71
2024/02/19 03:41:21;;;;;;;12.90;2.80;;;10.30;99.90;;;;;;2084546;28;20033;-72
2024/02/19 03:42:21;;;;;;;15.13;2.95;;;10.40;99.90;;;;;;2085412;28;20068;-71
2024/02/19 03:43:22;;;;;;;15.80;2.60;;;10.40;99.90;;;;;;2086285;28;20021;-71
2024/02/19 03:44:22;;;;;;;10.98;2.85;;;10.40;99.90;;;;;;2084428;28;20060;-72
2024/02/19 03:45:23;;;;;;;8.63;2.55;;;10.40;99.90;;;;;;2084461;28;20028;-72
2024/02/19 03:46:23;;;;;;;13.20;2.53;;;10.40;99.90;;;;;;2084555;28;20032;-77
2024/02/19 03:47:24;;;;;;;7.65;1.77;;;10.40;99.90;;;;;;2083568;28;20079;-72
2024/02/19 03:48:24;;;;;;;9.25;2.35;;;10.40;99.90;;;;;;2084118;28;20098;-72
2024/02/19 03:49:25;;;;;;;13.43;2.20;;;10.40;99.90;;;;;;2084518;28;20057;-72
2024/02/19 03:50:26;;;;;;;10.95;2.25;;;10.40;99.90;;;;;;2085293;28;20366;-72
2024/02/19 03:51:26;;;;;;;9.70;2.53;;;10.40;99.90;;;;;;2083983;28;20029;-72
2024/02/19 03:52:27;;;;;;;9.45;2.20;;;10.40;99.90;;;;;;2084258;28;20063;-71
2024/02/19 03:53:29;;;;;;;16.13;2.25;;;10.40;99.90;;;;;;2084957;28;20029;-71
2024/02/19 03:54:29;;;;;;;12.40;2.25;;;10.40;99.90;;;;;;2084947;28;20436;-72
2024/02/19 03:55:30;;;;;;;12.95;2.20;;;10.40;99.90;;;;;;2084975;28;20029;-71
2024/02/19 03:56:30;;;;;;;10.57;2.08;;;10.40;99.90;;;;;;2086317;28;20768;-72
2024/02/19 03:57:31;;;;;;;9.60;2.25;;;10.40;99.90;;;;;;2084298;28;20386;-71
2024/02/19 03:58:31;;;;;;;12.27;2.50;;;10.40;99.90;;;;;;2085262;28;20111;-71
2024/02/19 03:59:32;;;;;;;6.35;1.85;;;10.40;99.90;;;;;;2083232;28;20067;-72
2024/02/19 04:00:33;;;;;;;13.90;2.63;;;10.40;99.90;;;;;;2081236;28;20052;-71
2024/02/19 04:01:36;;;;;;;13.40;2.30;;;10.40;99.90;;;;;;2085582;28;20481;-72
2024/02/19 04:02:37;;;;;;;10.32;2.40;;;10.40;99.90;;;;;;2087544;28;20025;-71
2024/02/19 04:03:37;;;;;;;18.00;2.83;;;10.40;99.90;;;;;;2087650;28;20030;-72
2024/02/19 04:04:38;;;;;;;9.95;2.33;;;10.40;99.90;;;;;;2085689;28;20029;-72
2024/02/19 04:05:38;;;;;;;11.13;2.20;;;10.40;99.90;;;;;;2085895;28;20033;-71
2024/02/19 04:06:39;;;;;;;11.00;2.40;;;10.40;99.90;;;;;;2086105;28;20123;-71
2024/02/19 04:07:39;;;;;;;11.55;2.72;;;10.40;99.90;;;;;;2085103;28;20037;-72
2024/02/19 04:08:40;;;;;;;7.93;1.92;;;10.40;99.90;;;;;;2083919;28;20030;-72
2024/02/19 04:09:40;;;;;;;10.50;2.15;;;10.40;99.90;;;;;;2083039;28;20032;-71
2024/02/19 04:10:41;;;;;;;12.32;2.35;;;10.40;99.90;;;;;;2084022;28;20033;-72
2024/02/19 04:11:42;;;;;;;9.82;1.70;;;10.40;99.90;;;;;;2082938;28;20594;-72
2024/02/19 04:12:42;;;;;;;9.68;1.80;;;10.40;99.90;;;;;;2082386;28;20667;-71
2024/02/19 04:13:43;;;;;;;9.65;2.00;;;10.40;99.90;;;;;;2084150;28;20085;-72
2024/02/19 04:14:43;;;;;;;10.85;2.47;;;10.40;99.90;;;;;;2082370;28;20172;-72
2024/02/19 04:15:44;;;;;;;11.50;2.35;;;10.40;99.90;;;;;;2087333;28;20435;-72
2024/02/19 04:16:44;;;;;;;11.85;2.55;;;10.40;99.90;;;;;;2087711;28;20025;-72
2024/02/19 04:17:47;;;;;;;7.78;2.15;;;10.40;99.90;;;;;;2084042;28;20039;-72
2024/02/19 04:18:48;;;;;;;13.23;2.83;;;10.40;99.90;;;;;;2082900;28;20539;-72
2024/02/19 04:19:48;;;;;;;10.15;2.63;;;10.40;99.90;;;;;;2085878;28;20494;-71
2024/02/19 04:20:49;;;;;;;7.93;2.15;;;10.40;99.90;;;;;;2085960;28;20049;-72
2024/02/19 04:21:49;;;;;;;9.75;2.28;;;10.40;99.90;;;;;;2084099;28;20025;-72
2024/02/19 04:22:50;;;;;;;10.32;2.58;;;10.40;99.90;;;;;;2083466;28;20025;-72
2024/02/19 04:23:50;;;;;;;6.25;1.83;;;10.40;99.90;;;;;;2083147;28;20402;-72
2024/02/19 04:24:51;;;;;;;12.10;2.63;;;10.40;99.90;;;;;;2083853;28;20057;-72
2024/02/19 04:25:51;;;;;;;10.85;2.60;;;10.30;99.90;;;;;;2083624;28;20163;-72
2024/02/19 04:26:52;;;;;;;10.25;2.20;;;10.40;99.90;;;;;;2082872;28;20087;-72
2024/02/19 04:27:53;;;;;;;16.65;3.17;;;10.40;99.90;;;;;;2084873;28;20035;-72
2024/02/19 04:28:53;;;;;;;11.35;2.55;;;10.40;99.90;;;;;;2086009;28;20712;-71
2024/02/19 04:29:54;;;;;;;12.45;2.83;;;10.40;99.90;;;;;;2080187;28;20040;-72
2024/02/19 04:30:54;;;;;;;11.63;3.03;;;10.40;99.90;;;;;;2081939;28;20025;-72
2024/02/19 04:31:55;;;;;;;12.50;3.03;;;10.40;99.90;;;;;;2084828;28;20047;-72
2024/02/19 04:32:55;;;;;;;14.23;3.28;;;10.40;99.90;;;;;;2085272;28;20055;-72
2024/02/19 04:33:56;;;;;;;10.98;2.83;;;10.40;99.90;;;;;;2084118;28;20096;-72
2024/02/19 04:34:57;;;;;;;10.68;3.30;;;10.40;99.90;;;;;;2083711;28;20021;-73
2024/02/19 04:35:58;;;;;;;14.77;3.17;;;10.40;99.90;;;;;;2085319;28;20017;-72
2024/02/19 04:36:58;;;;;;;13.70;2.88;;;10.40;99.90;;;;;;2075495;28;20474;-71
2024/02/19 04:37:59;;;;;;;10.65;2.78;;;10.40;99.90;;;;;;2082036;28;20144;-71
2024/02/19 04:39:00;;;;;;;13.45;2.63;;;10.40;99.90;;;;;;2083865;28;20026;-71
2024/02/19 04:40:02;;;;;;;11.82;2.92;;;10.40;99.90;;;;;;2084681;28;20064;-72
2024/02/19 04:41:03;;;;;;;12.93;2.83;;;10.40;99.90;;;;;;2085876;28;20112;-71
2024/02/19 04:42:04;;;;;;;8.70;2.40;;;10.40;99.90;;;;;;2085692;28;20032;-71
2024/02/19 04:43:04;;;;;;;12.95;2.38;;;10.40;99.90;;;;;;2089728;28;20049;-72
2024/02/19 04:44:05;;;;;;;16.40;3.00;;;10.40;99.90;;;;;;2085301;28;20474;-71
2024/02/19 04:45:06;;;;;;;16.60;3.47;;;10.40;99.90;;;;;;2085384;28;20466;-71
2024/02/19 04:46:06;;;;;;;14.65;3.17;;;10.40;99.90;;;;;;2085235;28;20030;-72
2024/02/19 04:47:07;;;;;;;10.82;2.70;;;10.40;99.90;;;;;;2084634;28;20057;-72
2024/02/19 04:48:08;;;;;;;17.55;3.67;;;10.40;99.90;;;;;;2082984;28;20037;-72
2024/02/19 04:49:08;;;;;;;13.65;3.63;;;10.40;99.90;;;;;;2082282;28;20029;-72
2024/02/19 04:50:10;;;;;;;11.82;2.78;;;10.40;99.90;;;;;;2082591;28;20537;-72
2024/02/19 04:51:11;;;;;;;14.65;2.47;;;10.40;99.90;;;;;;2082713;28;20049;-72
2024/02/19 04:52:11;;;;;;;13.07;2.78;;;10.40;99.90;;;;;;2084574;28;20025;-72
2024/02/19 04:53:17;;;;;;;15.30;2.90;;;10.40;99.90;;;;;;2084059;28;20504;-72
2024/02/19 04:54:18;;;;;;;11.93;2.97;;;10.40;99.90;;;;;;2083828;28;20079;-72
2024/02/19 04:55:18;;;;;;;14.68;2.60;;;10.40;99.90;;;;;;2087456;28;20079;-72
2024/02/19 04:56:19;;;;;;;15.77;3.92;;;10.40;99.90;;;;;;2086914;28;20048;-71
2024/02/19 04:57:20;;;;;;;13.52;2.67;;;10.40;99.90;;;;;;2084610;28;20022;-72
2024/02/19 04:58:20;;;;;;;16.90;3.00;;;10.40;99.90;;;;;;2084823;28;20021;-72
2024/02/19 04:59:21;;;;;;;11.25;2.33;;;10.40;99.90;;;;;;2083520;28;20025;-72
2024/02/19 05:00:21;;;;;;;16.60;3.38;;;10.40;99.90;;;;;;2081567;28;20030;-71
2024/02/19 05:01:22;;;;;;;15.05;3.28;;;10.40;99.90;;;;;;2084454;28;20029;-72
2024/02/19 05:02:22;;;;;;;17.95;3.92;;;10.40;99.90;;;;;;2085765;28;20025;-72
2024/02/19 05:03:23;;;;;;;18.10;3.30;;;10.50;99.90;;;;;;2085282;28;20033;-72
2024/02/19 05:04:24;;;;;;;13.63;4.03;;;10.40;99.90;;;;;;2084118;28;20450;-71
2024/02/19 05:05:25;;;;;;;15.57;3.45;;;10.40;99.90;;;;;;2085166;28;20112;-72
2024/02/19 05:06:27;;;;;;;19.60;4.80;;;10.40;99.90;;;;;;2084685;28;20394;-72
2024/02/19 05:07:28;;;;;;;16.83;4.30;;;10.40;99.90;;;;;;2086761;28;20092;-72
2024/02/19 05:08:29;;;;;;;22.60;4.00;;;10.40;99.90;;;;;;2084055;28;20025;-72
2024/02/19 05:09:29;;;;;;;15.80;4.00;;;10.40;99.90;;;;;;2082923;28;20021;-72
2024/02/19 05:10:30;;;;;;;20.67;4.10;;;10.40;99.90;;;;;;2082220;28;20029;-72
2024/02/19 05:11:30;;;;;;;16.05;3.65;;;10.40;99.90;;;;;;2082855;28;20505;-72
2024/02/19 05:12:31;;;;;;;17.00;3.72;;;10.40;99.90;;;;;;2084208;28;20025;-71
2024/02/19 05:13:37;;;;;;;19.65;3.63;;;10.40;99.90;;;;;;2083863;28;20055;-72